sensor_id;sensor_type;location;lat;lon;timestamp;pressure;altitude;pressure_sealevel;temperature;humidity
61769;BME280;47669;48.712;9.016;2024-01-06T00:00:10;95430.31;;;2.77;99.87
61769;BME280;47669;48.712;9.016;2024-01-06T00:02:35;95428.75;;;2.82;99.49
61769;BME280;47669;48.712;9.016;2024-01-06T00:05:00;95433.44;;;2.65;99.51
61769;BME280;47669;48.712;9.016;2024-01-06T00:07:26;95436.00;;;2.59;99.82
61769;BME280;47669;48.712;9.016;2024-01-06T00:09:51;95434.97;;;2.81;99.28
61769;BME280;47669;48.712;9.016;2024-01-06T00:12:17;95434.50;;;2.71;98.97
61769;BME280;47669;48.712;9.016;2024-01-06T00:14:43;95440.78;;;2.55;99.70
61769;BME280;47669;48.712;9.016;2024-01-06T00:17:11;95436.44;;;2.62;99.54
61769;BME280;47669;48.712;9.016;2024-01-06T00:19:36;95441.16;;;2.52;99.67
61769;BME280;47669;48.712;9.016;2024-01-06T00:22:01;95438.03;;;2.63;100.00
61769;BME280;47669;48.712;9.016;2024-01-06T00:24:26;95448.03;;;2.60;98.92
61769;BME280;47669;48.712;9.016;2024-01-06T00:26:52;95444.94;;;2.50;99.98
61769;BME280;47669;48.712;9.016;2024-01-06T00:29:17;95446.47;;;2.65;99.38
61769;BME280;47669;48.712;9.016;2024-01-06T00:31:43;95445.75;;;2.50;99.38
61769;BME280;47669;48.712;9.016;2024-01-06T00:34:08;95441.56;;;2.56;99.44
61769;BME280;47669;48.712;9.016;2024-01-06T00:36:33;95441.03;;;2.60;98.72
61769;BME280;47669;48.712;9.016;2024-01-06T00:38:58;95442.88;;;2.67;98.87
61769;BME280;47669;48.712;9.016;2024-01-06T00:41:24;95443.09;;;2.43;99.22
61769;BME280;47669;48.712;9.016;2024-01-06T00:43:49;95443.78;;;2.52;99.86
61769;BME280;47669;48.712;9.016;2024-01-06T00:46:14;95444.44;;;2.61;99.03
61769;BME280;47669;48.712;9.016;2024-01-06T00:48:39;95452.84;;;2.56;99.26
61769;BME280;47669;48.712;9.016;2024-01-06T00:51:05;95455.56;;;2.48;99.66
61769;BME280;47669;48.712;9.016;2024-01-06T00:53:30;95462.22;;;2.51;99.57
61769;BME280;47669;48.712;9.016;2024-01-06T00:55:56;95461.69;;;2.40;100.00
61769;BME280;47669;48.712;9.016;2024-01-06T00:58:21;95463.06;;;2.36;99.92
61769;BME280;47669;48.712;9.016;2024-01-06T01:00:46;95469.28;;;2.57;100.00
61769;BME280;47669;48.712;9.016;2024-01-06T01:03:12;95465.38;;;2.46;99.77
61769;BME280;47669;48.712;9.016;2024-01-06T01:05:37;95470.22;;;2.49;99.71
61769;BME280;47669;48.712;9.016;2024-01-06T01:08:02;95475.41;;;2.71;99.63
61769;BME280;47669;48.712;9.016;2024-01-06T01:10:28;95472.56;;;2.65;98.98
61769;BME280;47669;48.712;9.016;2024-01-06T01:12:53;95484.38;;;2.61;99.02
61769;BME280;47669;48.712;9.016;2024-01-06T01:15:18;95474.91;;;2.39;99.76
61769;BME280;47669;48.712;9.016;2024-01-06T01:17:43;95478.09;;;2.34;100.00
61769;BME280;47669;48.712;9.016;2024-01-06T01:20:09;95484.31;;;2.33;100.00
61769;BME280;47669;48.712;9.016;2024-01-06T01:22:34;95485.44;;;2.46;100.00
61769;BME280;47669;48.712;9.016;2024-01-06T01:25:00;95481.75;;;2.61;100.00
61769;BME280;47669;48.712;9.016;2024-01-06T01:27:30;95480.69;;;2.56;99.94
61769;BME280;47669;48.712;9.016;2024-01-06T01:29:55;95481.94;;;2.60;99.57
61769;BME280;47669;48.712;9.016;2024-01-06T01:32:20;95486.19;;;2.61;99.55
61769;BME280;47669;48.712;9.016;2024-01-06T01:34:46;95487.53;;;2.57;99.53
61769;BME280;47669;48.712;9.016;2024-01-06T01:37:11;95492.03;;;2.63;98.60
61769;BME280;47669;48.712;9.016;2024-01-06T01:39:36;95489.94;;;2.37;99.94
61769;BME280;47669;48.712;9.016;2024-01-06T01:42:01;95494.13;;;2.31;100.00
61769;BME280;47669;48.712;9.016;2024-01-06T01:44:27;95499.00;;;2.41;99.60
61769;BME280;47669;48.712;9.016;2024-01-06T01:46:53;95505.91;;;2.27;100.00
61769;BME280;47669;48.712;9.016;2024-01-06T01:49:18;95507.09;;;2.24;100.00
61769;BME280;47669;48.712;9.016;2024-01-06T01:51:44;95507.72;;;2.27;100.00
61769;BME280;47669;48.712;9.016;2024-01-06T01:54:09;95506.69;;;2.28;100.00
61769;BME280;47669;48.712;9.016;2024-01-06T01:56:36;95514.59;;;2.34;100.00
61769;BME280;47669;48.712;9.016;2024-01-06T01:59:05;95518.94;;;2.27;100.00
61769;BME280;47669;48.712;9.016;2024-01-06T02:01:31;95515.53;;;2.48;99.87
61769;BME280;47669;48.712;9.016;2024-01-06T02:03:57;95519.19;;;2.32;100.00
61769;BME280;47669;48.712;9.016;2024-01-06T02:06:22;95523.75;;;2.30;100.00
61769;BME280;47669;48.712;9.016;2024-01-06T02:08:48;95523.56;;;2.47;100.00
61769;BME280;47669;48.712;9.016;2024-01-06T02:11:13;95516.78;;;2.52;100.00
61769;BME280;47669;48.712;9.016;2024-01-06T02:13:39;95524.63;;;2.52;99.22
61769;BME280;47669;48.712;9.016;2024-01-06T02:16:05;95531.81;;;2.50;99.53
61769;BME280;47669;48.712;9.016;2024-01-06T02:18:31;95531.75;;;2.43;99.35
61769;BME280;47669;48.712;9.016;2024-01-06T02:21:01;95525.56;;;2.30;99.95
61769;BME280;47669;48.712;9.016;2024-01-06T02:23:27;95530.00;;;2.29;99.85
61769;BME280;47669;48.712;9.016;2024-01-06T02:25:53;95532.28;;;2.39;99.38
61769;BME280;47669;48.712;9.016;2024-01-06T02:28:18;95541.28;;;2.36;99.72
61769;BME280;47669;48.712;9.016;2024-01-06T02:30:44;95532.22;;;2.32;99.98
61769;BME280;47669;48.712;9.016;2024-01-06T02:33:09;95530.50;;;2.39;99.81
61769;BME280;47669;48.712;9.016;2024-01-06T02:35:35;95542.72;;;2.39;100.00
61769;BME280;47669;48.712;9.016;2024-01-06T02:38:00;95544.94;;;2.57;98.91
61769;BME280;47669;48.712;9.016;2024-01-06T02:40:26;95545.28;;;2.54;98.77
61769;BME280;47669;48.712;9.016;2024-01-06T02:42:51;95536.06;;;2.36;99.58
61769;BME280;47669;48.712;9.016;2024-01-06T02:45:16;95545.94;;;2.41;99.60
61769;BME280;47669;48.712;9.016;2024-01-06T02:47:41;95543.03;;;2.29;99.68
61769;BME280;47669;48.712;9.016;2024-01-06T02:50:07;95544.31;;;2.18;100.00
61769;BME280;47669;48.712;9.016;2024-01-06T02:52:32;95552.94;;;2.19;99.50
61769;BME280;47669;48.712;9.016;2024-01-06T02:54:58;95552.56;;;2.22;100.00
61769;BME280;47669;48.712;9.016;2024-01-06T02:57:23;95549.78;;;2.23;99.67
61769;BME280;47669;48.712;9.016;2024-01-06T02:59:48;95547.69;;;2.34;99.65
61769;BME280;47669;48.712;9.016;2024-01-06T03:02:14;95545.28;;;2.17;99.60
61769;BME280;47669;48.712;9.016;2024-01-06T03:04:39;95537.47;;;2.17;99.65
61769;BME280;47669;48.712;9.016;2024-01-06T03:07:04;95538.88;;;2.20;99.30
61769;BME280;47669;48.712;9.016;2024-01-06T03:09:29;95541.09;;;2.01;99.57
61769;BME280;47669;48.712;9.016;2024-01-06T03:11:55;95545.22;;;1.96;100.00
61769;BME280;47669;48.712;9.016;2024-01-06T03:14:20;95551.22;;;2.11;100.00
61769;BME280;47669;48.712;9.016;2024-01-06T03:16:45;95542.84;;;2.16;99.75
61769;BME280;47669;48.712;9.016;2024-01-06T03:19:10;95541.16;;;2.08;99.26
61769;BME280;47669;48.712;9.016;2024-01-06T03:21:36;95537.22;;;2.12;99.33
61769;BME280;47669;48.712;9.016;2024-01-06T03:24:01;95539.00;;;2.27;99.10
61769;BME280;47669;48.712;9.016;2024-01-06T03:26:26;95542.44;;;2.12;99.24
61769;BME280;47669;48.712;9.016;2024-01-06T03:28:51;95537.66;;;2.01;99.76
61769;BME280;47669;48.712;9.016;2024-01-06T03:31:17;95535.44;;;1.98;99.78
61769;BME280;47669;48.712;9.016;2024-01-06T03:33:43;95530.44;;;2.18;99.79
61769;BME280;47669;48.712;9.016;2024-01-06T03:36:09;95534.94;;;2.24;99.50
61769;BME280;47669;48.712;9.016;2024-01-06T03:38:34;95537.56;;;2.09;99.97
61769;BME280;47669;48.712;9.016;2024-01-06T03:41:00;95534.75;;;2.26;99.42
61769;BME280;47669;48.712;9.016;2024-01-06T03:43:25;95526.50;;;2.07;99.44
61769;BME280;47669;48.712;9.016;2024-01-06T03:45:50;95530.47;;;2.03;100.00
61769;BME280;47669;48.712;9.016;2024-01-06T03:48:15;95527.34;;;2.08;100.00
61769;BME280;47669;48.712;9.016;2024-01-06T03:50:41;95539.28;;;2.02;99.53
61769;BME280;47669;48.712;9.016;2024-01-06T03:53:06;95529.50;;;2.04;99.72
61769;BME280;47669;48.712;9.016;2024-01-06T03:55:32;95526.38;;;2.30;99.13
61769;BME280;47669;48.712;9.016;2024-01-06T03:57:58;95531.31;;;2.40;98.07
61769;BME280;47669;48.712;9.016;2024-01-06T04:00:25;95535.38;;;2.28;98.31
61769;BME280;47669;48.712;9.016;2024-01-06T04:02:51;95540.97;;;2.24;98.19
61769;BME280;47669;48.712;9.016;2024-01-06T04:05:16;95535.66;;;2.18;99.02
61769;BME280;47669;48.712;9.016;2024-01-06T04:07:41;95537.75;;;2.22;99.38
61769;BME280;47669;48.712;9.016;2024-01-06T04:10:06;95535.75;;;2.24;99.38
61769;BME280;47669;48.712;9.016;2024-01-06T04:12:32;95546.19;;;2.24;99.13
61769;BME280;47669;48.712;9.016;2024-01-06T04:14:57;95541.16;;;2.23;98.82
61769;BME280;47669;48.712;9.016;2024-01-06T04:17:22;95545.66;;;2.14;99.31
61769;BME280;47669;48.712;9.016;2024-01-06T04:19:47;95545.22;;;2.11;99.82
61769;BME280;47669;48.712;9.016;2024-01-06T04:22:13;95543.84;;;2.15;98.80
61769;BME280;47669;48.712;9.016;2024-01-06T04:24:38;95547.00;;;2.10;98.87
61769;BME280;47669;48.712;9.016;2024-01-06T04:27:05;95551.44;;;2.10;99.32
61769;BME280;47669;48.712;9.016;2024-01-06T04:29:30;95555.09;;;2.00;99.31
61769;BME280;47669;48.712;9.016;2024-01-06T04:31:55;95553.41;;;2.08;99.25
61769;BME280;47669;48.712;9.016;2024-01-06T04:34:21;95549.94;;;2.22;99.00
61769;BME280;47669;48.712;9.016;2024-01-06T04:36:46;95553.88;;;2.33;98.27
61769;BME280;47669;48.712;9.016;2024-01-06T04:39:11;95558.16;;;2.04;98.64
61769;BME280;47669;48.712;9.016;2024-01-06T04:41:38;95558.34;;;2.02;98.55
61769;BME280;47669;48.712;9.016;2024-01-06T04:44:04;95553.03;;;1.96;99.18
61769;BME280;47669;48.712;9.016;2024-01-06T04:46:29;95549.88;;;2.15;98.88
61769;BME280;47669;48.712;9.016;2024-01-06T04:48:55;95556.72;;;2.01;98.66
61769;BME280;47669;48.712;9.016;2024-01-06T04:51:21;95561.88;;;1.95;99.05
61769;BME280;47669;48.712;9.016;2024-01-06T04:53:46;95560.56;;;2.20;98.70
61769;BME280;47669;48.712;9.016;2024-01-06T04:56:12;95568.41;;;2.06;98.56
61769;BME280;47669;48.712;9.016;2024-01-06T04:58:38;95559.25;;;1.95;99.27
61769;BME280;47669;48.712;9.016;2024-01-06T05:01:03;95560.31;;;2.00;98.81
61769;BME280;47669;48.712;9.016;2024-01-06T05:03:29;95565.81;;;2.06;98.48
61769;BME280;47669;48.712;9.016;2024-01-06T05:05:54;95559.59;;;2.07;98.68
61769;BME280;47669;48.712;9.016;2024-01-06T05:08:19;95567.56;;;2.20;98.17
61769;BME280;47669;48.712;9.016;2024-01-06T05:10:45;95568.41;;;2.06;98.52
61769;BME280;47669;48.712;9.016;2024-01-06T05:13:11;95566.84;;;2.11;98.66
61769;BME280;47669;48.712;9.016;2024-01-06T05:15:37;95566.31;;;2.16;98.70
61769;BME280;47669;48.712;9.016;2024-01-06T05:18:02;95567.84;;;2.25;98.32
61769;BME280;47669;48.712;9.016;2024-01-06T05:20:27;95572.69;;;2.28;98.48
61769;BME280;47669;48.712;9.016;2024-01-06T05:22:53;95571.25;;;2.26;98.48
61769;BME280;47669;48.712;9.016;2024-01-06T05:25:18;95568.50;;;2.12;98.76
61769;BME280;47669;48.712;9.016;2024-01-06T05:27:44;95573.16;;;2.17;99.15
61769;BME280;47669;48.712;9.016;2024-01-06T05:30:09;95571.63;;;2.22;99.76
61769;BME280;47669;48.712;9.016;2024-01-06T05:32:37;95580.06;;;2.24;99.53
61769;BME280;47669;48.712;9.016;2024-01-06T05:35:02;95568.63;;;2.26;99.15
61769;BME280;47669;48.712;9.016;2024-01-06T05:37:27;95580.78;;;2.33;98.58
61769;BME280;47669;48.712;9.016;2024-01-06T05:39:53;95587.22;;;2.52;97.38
61769;BME280;47669;48.712;9.016;2024-01-06T05:42:19;95585.13;;;2.48;97.41
61769;BME280;47669;48.712;9.016;2024-01-06T05:44:44;95579.03;;;2.40;98.52
61769;BME280;47669;48.712;9.016;2024-01-06T05:47:10;95580.53;;;2.50;98.67
61769;BME280;47669;48.712;9.016;2024-01-06T05:49:35;95584.88;;;2.42;99.08
61769;BME280;47669;48.712;9.016;2024-01-06T05:52:00;95582.88;;;2.59;97.89
61769;BME280;47669;48.712;9.016;2024-01-06T05:54:25;95601.16;;;2.44;97.05
61769;BME280;47669;48.712;9.016;2024-01-06T05:56:51;95607.72;;;2.40;98.31
61769;BME280;47669;48.712;9.016;2024-01-06T05:59:16;95607.00;;;2.47;98.27
61769;BME280;47669;48.712;9.016;2024-01-06T06:01:41;95612.22;;;2.47;98.02
61769;BME280;47669;48.712;9.016;2024-01-06T06:04:08;95614.91;;;2.53;98.23
61769;BME280;47669;48.712;9.016;2024-01-06T06:06:33;95628.13;;;2.52;98.26
61769;BME280;47669;48.712;9.016;2024-01-06T06:08:59;95626.84;;;2.62;97.82
61769;BME280;47669;48.712;9.016;2024-01-06T06:11:24;95631.25;;;2.62;97.74
61769;BME280;47669;48.712;9.016;2024-01-06T06:13:49;95623.75;;;2.74;97.73
61769;BME280;47669;48.712;9.016;2024-01-06T06:16:15;95629.09;;;2.65;96.08
61769;BME280;47669;48.712;9.016;2024-01-06T06:18:40;95625.69;;;2.87;93.11
61769;BME280;47669;48.712;9.016;2024-01-06T06:21:08;95636.06;;;2.80;91.37
61769;BME280;47669;48.712;9.016;2024-01-06T06:23:34;95637.28;;;2.99;92.13
61769;BME280;47669;48.712;9.016;2024-01-06T06:26:04;95642.63;;;3.12;92.54
61769;BME280;47669;48.712;9.016;2024-01-06T06:28:30;95645.53;;;3.02;92.04
61769;BME280;47669;48.712;9.016;2024-01-06T06:30:55;95648.13;;;3.02;93.06
61769;BME280;47669;48.712;9.016;2024-01-06T06:33:20;95643.88;;;3.16;90.80
61769;BME280;47669;48.712;9.016;2024-01-06T06:35:46;95650.50;;;3.19;91.91
61769;BME280;47669;48.712;9.016;2024-01-06T06:38:11;95655.72;;;2.97;92.08
61769;BME280;47669;48.712;9.016;2024-01-06T06:40:36;95661.19;;;3.02;93.97
61769;BME280;47669;48.712;9.016;2024-01-06T06:43:02;95659.72;;;2.78;94.38
61769;BME280;47669;48.712;9.016;2024-01-06T06:45:27;95661.31;;;2.94;93.74
61769;BME280;47669;48.712;9.016;2024-01-06T06:47:52;95658.66;;;3.09;93.51
61769;BME280;47669;48.712;9.016;2024-01-06T06:50:18;95657.09;;;3.15;92.49
61769;BME280;47669;48.712;9.016;2024-01-06T06:52:44;95667.16;;;2.96;91.77
61769;BME280;47669;48.712;9.016;2024-01-06T06:55:09;95678.72;;;3.09;89.60
61769;BME280;47669;48.712;9.016;2024-01-06T06:57:35;95678.06;;;3.21;89.58
61769;BME280;47669;48.712;9.016;2024-01-06T07:00:00;95681.53;;;3.07;88.19
61769;BME280;47669;48.712;9.016;2024-01-06T07:02:26;95686.00;;;3.13;88.70
61769;BME280;47669;48.712;9.016;2024-01-06T07:04:51;95685.50;;;3.03;88.31
61769;BME280;47669;48.712;9.016;2024-01-06T07:07:16;95690.06;;;3.16;88.57
61769;BME280;47669;48.712;9.016;2024-01-06T07:09:41;95684.78;;;3.09;88.23
61769;BME280;47669;48.712;9.016;2024-01-06T07:12:07;95686.38;;;3.10;89.03
61769;BME280;47669;48.712;9.016;2024-01-06T07:14:33;95685.66;;;3.16;88.83
61769;BME280;47669;48.712;9.016;2024-01-06T07:16:58;95686.94;;;3.05;89.24
61769;BME280;47669;48.712;9.016;2024-01-06T07:19:24;95689.69;;;3.19;89.24
61769;BME280;47669;48.712;9.016;2024-01-06T07:21:49;95689.06;;;3.17;88.19
61769;BME280;47669;48.712;9.016;2024-01-06T07:24:14;95704.72;;;3.17;87.47
61769;BME280;47669;48.712;9.016;2024-01-06T07:26:39;95700.56;;;3.01;87.14
61769;BME280;47669;48.712;9.016;2024-01-06T07:29:05;95703.19;;;3.22;87.24
61769;BME280;47669;48.712;9.016;2024-01-06T07:31:30;95699.78;;;3.22;87.25
61769;BME280;47669;48.712;9.016;2024-01-06T07:33:55;95700.81;;;3.28;87.58
61769;BME280;47669;48.712;9.016;2024-01-06T07:36:20;95698.63;;;3.10;86.65
61769;BME280;47669;48.712;9.016;2024-01-06T07:38:47;95698.25;;;3.13;86.80
61769;BME280;47669;48.712;9.016;2024-01-06T07:41:12;95698.75;;;3.23;86.38
61769;BME280;47669;48.712;9.016;2024-01-06T07:43:38;95697.00;;;3.09;85.93
61769;BME280;47669;48.712;9.016;2024-01-06T07:46:03;95699.84;;;3.29;85.34
61769;BME280;47669;48.712;9.016;2024-01-06T07:48:29;95705.53;;;3.17;86.38
61769;BME280;47669;48.712;9.016;2024-01-06T07:50:54;95699.78;;;3.22;86.49
61769;BME280;47669;48.712;9.016;2024-01-06T07:53:19;95702.94;;;3.39;87.08
61769;BME280;47669;48.712;9.016;2024-01-06T07:55:45;95705.28;;;3.12;86.19
61769;BME280;47669;48.712;9.016;2024-01-06T07:58:10;95707.47;;;3.30;88.05
61769;BME280;47669;48.712;9.016;2024-01-06T08:00:36;95707.28;;;3.32;86.70
61769;BME280;47669;48.712;9.016;2024-01-06T08:03:01;95703.63;;;3.47;86.86
61769;BME280;47669;48.712;9.016;2024-01-06T08:05:29;95708.34;;;3.37;86.61
61769;BME280;47669;48.712;9.016;2024-01-06T08:07:54;95712.56;;;3.38;86.16
61769;BME280;47669;48.712;9.016;2024-01-06T08:10:20;95712.03;;;3.43;85.29
61769;BME280;47669;48.712;9.016;2024-01-06T08:12:46;95713.88;;;3.49;87.15
61769;BME280;47669;48.712;9.016;2024-01-06T08:15:12;95717.72;;;3.53;87.11
61769;BME280;47669;48.712;9.016;2024-01-06T08:17:37;95704.78;;;3.45;85.44
61769;BME280;47669;48.712;9.016;2024-01-06T08:20:04;95708.81;;;3.41;85.24
61769;BME280;47669;48.712;9.016;2024-01-06T08:22:30;95711.69;;;3.31;84.68
61769;BME280;47669;48.712;9.016;2024-01-06T08:24:55;95716.31;;;3.29;85.16
61769;BME280;47669;48.712;9.016;2024-01-06T08:27:20;95719.16;;;3.34;84.51
61769;BME280;47669;48.712;9.016;2024-01-06T08:29:46;95724.59;;;3.54;85.49
61769;BME280;47669;48.712;9.016;2024-01-06T08:32:12;95723.47;;;3.63;85.51
61769;BME280;47669;48.712;9.016;2024-01-06T08:34:39;95720.91;;;3.49;84.55
61769;BME280;47669;48.712;9.016;2024-01-06T08:37:05;95727.38;;;3.53;85.24
61769;BME280;47669;48.712;9.016;2024-01-06T08:39:30;95726.88;;;3.64;85.71
61769;BME280;47669;48.712;9.016;2024-01-06T08:41:55;95728.44;;;3.37;84.75
61769;BME280;47669;48.712;9.016;2024-01-06T08:44:20;95736.84;;;3.54;85.41
61769;BME280;47669;48.712;9.016;2024-01-06T08:46:46;95734.97;;;3.69;85.54
61769;BME280;47669;48.712;9.016;2024-01-06T08:49:11;95741.00;;;3.70;84.80
61769;BME280;47669;48.712;9.016;2024-01-06T08:51:36;95731.69;;;3.60;84.52
61769;BME280;47669;48.712;9.016;2024-01-06T08:54:02;95749.19;;;3.60;84.97
61769;BME280;47669;48.712;9.016;2024-01-06T08:56:30;95739.22;;;3.92;84.63
61769;BME280;47669;48.712;9.016;2024-01-06T08:58:55;95735.13;;;3.89;84.33
61769;BME280;47669;48.712;9.016;2024-01-06T09:01:22;95736.72;;;3.62;84.44
61769;BME280;47669;48.712;9.016;2024-01-06T09:03:47;95738.03;;;3.73;84.46
61769;BME280;47669;48.712;9.016;2024-01-06T09:06:12;95735.47;;;3.79;84.42
61769;BME280;47669;48.712;9.016;2024-01-06T09:08:38;95737.88;;;4.02;84.76
61769;BME280;47669;48.712;9.016;2024-01-06T09:11:03;95750.03;;;3.88;84.26
61769;BME280;47669;48.712;9.016;2024-01-06T09:13:29;95749.34;;;3.80;84.08
61769;BME280;47669;48.712;9.016;2024-01-06T09:15:54;95749.59;;;3.63;84.12
61769;BME280;47669;48.712;9.016;2024-01-06T09:18:19;95758.16;;;3.79;84.19
61769;BME280;47669;48.712;9.016;2024-01-06T09:20:45;95752.53;;;3.75;84.24
61769;BME280;47669;48.712;9.016;2024-01-06T09:23:12;95758.25;;;3.85;85.05
61769;BME280;47669;48.712;9.016;2024-01-06T09:25:38;95757.69;;;3.90;84.46
61769;BME280;47669;48.712;9.016;2024-01-06T09:28:05;95763.53;;;3.92;84.53
61769;BME280;47669;48.712;9.016;2024-01-06T09:30:30;95766.09;;;3.85;84.76
61769;BME280;47669;48.712;9.016;2024-01-06T09:32:55;95766.06;;;3.64;84.19
61769;BME280;47669;48.712;9.016;2024-01-06T09:35:21;95768.31;;;3.67;83.57
61769;BME280;47669;48.712;9.016;2024-01-06T09:37:46;95776.53;;;3.64;84.16
61769;BME280;47669;48.712;9.016;2024-01-06T09:40:12;95777.47;;;3.78;83.26
61769;BME280;47669;48.712;9.016;2024-01-06T09:42:40;95779.84;;;3.94;84.57
61769;BME280;47669;48.712;9.016;2024-01-06T09:45:06;95780.09;;;3.78;83.94
61769;BME280;47669;48.712;9.016;2024-01-06T09:47:34;95777.16;;;3.87;84.07
61769;BME280;47669;48.712;9.016;2024-01-06T09:50:01;95786.44;;;3.90;83.94
61769;BME280;47669;48.712;9.016;2024-01-06T09:52:32;95783.00;;;3.68;83.29
61769;BME280;47669;48.712;9.016;2024-01-06T09:54:59;95778.03;;;3.95;84.20
61769;BME280;47669;48.712;9.016;2024-01-06T09:57:25;95780.63;;;4.16;83.55
61769;BME280;47669;48.712;9.016;2024-01-06T09:59:51;95781.06;;;4.20;83.68
61769;BME280;47669;48.712;9.016;2024-01-06T10:02:17;95778.41;;;4.13;83.63
61769;BME280;47669;48.712;9.016;2024-01-06T10:04:43;95774.91;;;4.06;83.74
61769;BME280;47669;48.712;9.016;2024-01-06T10:07:10;95787.41;;;4.11;84.25
61769;BME280;47669;48.712;9.016;2024-01-06T10:09:37;95768.88;;;4.05;83.74
61769;BME280;47669;48.712;9.016;2024-01-06T10:12:03;95774.06;;;4.27;84.19
61769;BME280;47669;48.712;9.016;2024-01-06T10:14:28;95770.81;;;4.25;83.95
61769;BME280;47669;48.712;9.016;2024-01-06T10:16:53;95776.06;;;4.25;83.81
61769;BME280;47669;48.712;9.016;2024-01-06T10:19:19;95776.09;;;4.32;84.02
61769;BME280;47669;48.712;9.016;2024-01-06T10:21:44;95777.78;;;4.11;84.43
61769;BME280;47669;48.712;9.016;2024-01-06T10:24:10;95786.72;;;4.23;85.15
61769;BME280;47669;48.712;9.016;2024-01-06T10:26:35;95781.50;;;4.02;85.12
61769;BME280;47669;48.712;9.016;2024-01-06T10:29:01;95788.00;;;4.34;85.21
61769;BME280;47669;48.712;9.016;2024-01-06T10:31:26;95787.56;;;4.02;84.72
61769;BME280;47669;48.712;9.016;2024-01-06T10:33:51;95787.06;;;3.92;86.43
61769;BME280;47669;48.712;9.016;2024-01-06T10:36:17;95795.03;;;3.84;86.02
61769;BME280;47669;48.712;9.016;2024-01-06T10:38:44;95793.84;;;3.86;85.89
61769;BME280;47669;48.712;9.016;2024-01-06T10:41:11;95788.72;;;4.00;86.05
61769;BME280;47669;48.712;9.016;2024-01-06T10:43:37;95789.72;;;3.99;86.66
61769;BME280;47669;48.712;9.016;2024-01-06T10:46:06;95789.50;;;3.94;87.12
61769;BME280;47669;48.712;9.016;2024-01-06T10:48:36;95792.47;;;3.91;86.35
61769;BME280;47669;48.712;9.016;2024-01-06T10:51:04;95798.13;;;3.73;86.64
61769;BME280;47669;48.712;9.016;2024-01-06T10:53:33;95791.09;;;3.73;87.04
61769;BME280;47669;48.712;9.016;2024-01-06T10:55:59;95784.63;;;3.91;87.10
61769;BME280;47669;48.712;9.016;2024-01-06T10:58:25;95788.56;;;3.80;86.19
61769;BME280;47669;48.712;9.016;2024-01-06T11:00:50;95782.63;;;3.93;87.37
61769;BME280;47669;48.712;9.016;2024-01-06T11:03:17;95784.75;;;3.82;86.64
61769;BME280;47669;48.712;9.016;2024-01-06T11:05:43;95783.00;;;3.68;87.51
61769;BME280;47669;48.712;9.016;2024-01-06T11:08:08;95783.94;;;3.82;86.72
61769;BME280;47669;48.712;9.016;2024-01-06T11:10:36;95779.84;;;3.94;86.30
61769;BME280;47669;48.712;9.016;2024-01-06T11:13:09;95786.06;;;3.93;86.49
61769;BME280;47669;48.712;9.016;2024-01-06T11:15:39;95781.31;;;4.03;86.33
61769;BME280;47669;48.712;9.016;2024-01-06T11:18:05;95777.44;;;4.21;87.03
61769;BME280;47669;48.712;9.016;2024-01-06T11:20:31;95776.19;;;4.17;85.96
61769;BME280;47669;48.712;9.016;2024-01-06T11:23:17;95782.25;;;4.45;85.41
61769;BME280;47669;48.712;9.016;2024-01-06T11:25:43;95781.50;;;4.23;85.82
61769;BME280;47669;48.712;9.016;2024-01-06T11:28:09;95773.31;;;4.33;85.17
61769;BME280;47669;48.712;9.016;2024-01-06T11:30:38;95768.66;;;4.28;85.17
61769;BME280;47669;48.712;9.016;2024-01-06T11:33:04;95768.59;;;4.22;85.22
61769;BME280;47669;48.712;9.016;2024-01-06T11:35:30;95761.41;;;4.31;85.77
61769;BME280;47669;48.712;9.016;2024-01-06T11:37:57;95758.00;;;4.30;86.00
61769;BME280;47669;48.712;9.016;2024-01-06T11:40:33;95756.06;;;4.39;86.26
61769;BME280;47669;48.712;9.016;2024-01-06T11:43:06;95759.53;;;4.53;85.08
61769;BME280;47669;48.712;9.016;2024-01-06T11:45:33;95752.56;;;4.32;84.17
61769;BME280;47669;48.712;9.016;2024-01-06T11:48:00;95743.38;;;4.77;84.86
61769;BME280;47669;48.712;9.016;2024-01-06T11:50:28;95745.53;;;4.67;84.50
61769;BME280;47669;48.712;9.016;2024-01-06T11:52:54;95746.31;;;4.61;84.10
61769;BME280;47669;48.712;9.016;2024-01-06T11:55:20;95746.91;;;4.98;84.33
61769;BME280;47669;48.712;9.016;2024-01-06T11:57:45;95744.31;;;4.98;83.77
61769;BME280;47669;48.712;9.016;2024-01-06T12:00:11;95747.94;;;5.10;82.93
61769;BME280;47669;48.712;9.016;2024-01-06T12:02:39;95739.97;;;4.77;84.47
61769;BME280;47669;48.712;9.016;2024-01-06T12:05:05;95741.91;;;4.33;84.42
61769;BME280;47669;48.712;9.016;2024-01-06T12:07:30;95739.03;;;4.91;85.45
61769;BME280;47669;48.712;9.016;2024-01-06T12:10:03;95739.88;;;4.63;83.94
61769;BME280;47669;48.712;9.016;2024-01-06T12:12:28;95736.47;;;4.28;84.97
61769;BME280;47669;48.712;9.016;2024-01-06T12:14:53;95740.72;;;4.36;85.30
61769;BME280;47669;48.712;9.016;2024-01-06T12:17:21;95744.00;;;4.44;85.16
61769;BME280;47669;48.712;9.016;2024-01-06T12:19:47;95739.94;;;4.07;85.99
61769;BME280;47669;48.712;9.016;2024-01-06T12:22:14;95747.00;;;4.13;86.99
61769;BME280;47669;48.712;9.016;2024-01-06T12:24:40;95745.69;;;4.24;87.80
61769;BME280;47669;48.712;9.016;2024-01-06T12:27:07;95746.00;;;4.14;87.33
61769;BME280;47669;48.712;9.016;2024-01-06T12:29:40;95738.06;;;4.01;87.75
61769;BME280;47669;48.712;9.016;2024-01-06T12:32:06;95732.31;;;4.12;87.82
61769;BME280;47669;48.712;9.016;2024-01-06T12:34:32;95731.50;;;4.12;88.00
61769;BME280;47669;48.712;9.016;2024-01-06T12:36:57;95734.97;;;4.19;87.33
61769;BME280;47669;48.712;9.016;2024-01-06T12:39:27;95733.72;;;4.15;88.33
61769;BME280;47669;48.712;9.016;2024-01-06T12:41:54;95737.66;;;4.25;88.02
61769;BME280;47669;48.712;9.016;2024-01-06T12:44:19;95736.78;;;4.18;89.00
61769;BME280;47669;48.712;9.016;2024-01-06T12:46:44;95729.94;;;4.17;88.91
61769;BME280;47669;48.712;9.016;2024-01-06T12:49:10;95729.88;;;4.11;89.25
61769;BME280;47669;48.712;9.016;2024-01-06T12:51:35;95734.34;;;4.17;88.35
61769;BME280;47669;48.712;9.016;2024-01-06T12:54:00;95728.50;;;3.86;89.03
61769;BME280;47669;48.712;9.016;2024-01-06T12:56:25;95730.03;;;4.02;88.90
61769;BME280;47669;48.712;9.016;2024-01-06T12:58:51;95728.81;;;3.98;89.09
61769;BME280;47669;48.712;9.016;2024-01-06T13:01:17;95733.22;;;4.26;89.05